In Rescue
 
Open Full Screen Window  High Contrast Mode
Wind Gusting 00 knots
10
November 29, 2022 9:26 AM CST
Weather Information
Wind Direction
  220 °
Wind Speed
  10 kt (12 mph)
Wind Gust
  00 kt (0 mph)
Altimeter
29.70 in
Visibility
10 SM
Temperature
-11° C
12° F
Dewpoint
-13° C
F
Humidity
85%
1hr Rain Fall
00.00 in.
24hr Rain Fall
00.00 in.
Sky Condition
Clear
VFR

METAR KFSE 291526Z AUTO 22010KT 10SM CLR M11/M13 A2970 RMK AO2

FAA Disclaimer: The data displayed is for advisory purposes only and is not to be used for flight planning or operations.